Time;durP1;ratioP1;P1;durP2;ratioP2;P2;SDS_P1;SDS_P2;PMS_P1;PMS_P2;Temp;Humidity;BMP_temperature;BMP_pressure;BME280_temperature;BME280_humidity;BME280_pressure;Samples;Min_cycle;Max_cycle;Signal;HPM_P1;HPM_P2
2022/02/03 00:04:32;;;;;;;47.80;14.13;;;10.30;98.30;;;;;;6205861;23;20371;-58
2022/02/03 00:07:06;;;;;;;49.50;15.57;;;10.30;98.20;;;;;;6205860;23;20011;-59
2022/02/03 00:25:32;;;;;;;57.58;14.85;;;10.20;98.30;;;;;;6235630;23;20386;-58
2022/02/03 00:49:20;;;;;;;40.92;10.70;;;10.20;98.10;;;;;;6191379;23;20054;-59
2022/02/03 00:51:51;;;;;;;40.28;12.15;;;10.20;98.10;;;;;;6234491;23;20008;-59
2022/02/03 00:54:20;;;;;;;39.50;11.15;;;10.20;98.00;;;;;;6232876;23;20111;-58
2022/02/03 00:56:58;;;;;;;41.40;11.20;;;10.20;98.00;;;;;;6232737;23;20364;-60
2022/02/03 00:59:36;;;;;;;35.85;10.73;;;10.20;98.00;;;;;;6181397;23;20011;-59
2022/02/03 01:02:08;;;;;;;39.47;10.20;;;10.20;98.00;;;;;;6207696;23;20005;-58
2022/02/03 01:04:36;;;;;;;37.67;10.77;;;10.20;98.00;;;;;;6210031;23;20065;-61
2022/02/03 01:07:03;;;;;;;38.25;11.65;;;10.20;98.00;;;;;;6180692;23;20090;-60
2022/02/03 01:09:32;;;;;;;33.35;10.80;;;10.20;98.00;;;;;;6233294;23;20357;-59
2022/02/03 01:12:08;;;;;;;39.08;10.23;;;10.20;98.00;;;;;;6181701;23;20004;-62
2022/02/03 01:14:56;;;;;;;38.22;10.68;;;10.10;98.00;;;;;;6232523;23;20043;-62
2022/02/03 01:33:54;;;;;;;34.30;10.23;;;10.20;98.00;;;;;;6211759;23;20079;-63
2022/02/03 01:44:59;;;;;;;25.15;10.15;;;10.10;97.90;;;;;;6236513;23;20054;-60
2022/02/03 01:52:38;;;;;;;26.15;9.52;;;10.10;97.90;;;;;;6206937;23;20027;-61
2022/02/03 01:55:09;;;;;;;28.27;9.13;;;10.10;97.90;;;;;;6237407;23;20004;-60
2022/02/03 01:57:42;;;;;;;26.42;9.38;;;10.10;97.90;;;;;;6209387;23;20342;-62
2022/02/03 02:00:13;;;;;;;25.70;8.93;;;10.10;97.90;;;;;;6209610;23;19996;-62
2022/02/03 02:02:44;;;;;;;28.23;9.43;;;10.10;97.90;;;;;;6182744;23;20414;-60
2022/02/03 02:05:39;;;;;;;26.52;8.63;;;10.10;97.80;;;;;;6208621;23;20008;-61
2022/02/03 02:08:27;;;;;;;30.65;8.93;;;10.10;97.80;;;;;;6193004;23;20008;-61
2022/02/03 02:11:34;;;;;;;33.22;9.05;;;10.10;97.70;;;;;;6213119;23;20004;-59
2022/02/03 02:17:09;;;;;;;21.50;8.68;;;10.10;97.80;;;;;;6235007;23;20012;-60
2022/02/03 02:19:49;;;;;;;28.98;8.27;;;10.10;97.80;;;;;;6191477;23;20004;-62
2022/02/03 02:36:57;;;;;;;24.58;8.40;;;10.10;97.80;;;;;;6212367;23;20338;-59
2022/02/03 02:39:12;;;;;;;30.10;11.13;;;10.00;97.90;;;;;;6191680;23;20027;-60
2022/02/03 02:45:11;;;;;;;31.98;9.43;;;10.00;97.90;;;;;;6211059;23;20016;-60
2022/02/03 02:48:04;;;;;;;18.40;7.85;;;10.10;97.80;;;;;;6208890;23;19996;-60
2022/02/03 02:50:45;;;;;;;29.95;8.05;;;10.10;97.80;;;;;;6182425;23;20422;-60
2022/02/03 02:53:30;;;;;;;20.67;8.48;;;10.00;97.70;;;;;;6188253;23;20005;-59
2022/02/03 03:28:52;;;;;;;19.17;6.80;;;10.00;97.70;;;;;;6166442;23;20018;-60
2022/02/03 03:37:09;;;;;;;21.63;7.95;;;9.90;97.80;;;;;;6233452;23;20340;-61
2022/02/03 03:39:43;;;;;;;19.30;8.05;;;10.00;97.80;;;;;;6160328;23;20001;-59
2022/02/03 03:42:08;;;;;;;22.77;8.32;;;10.00;97.80;;;;;;6211449;23;20027;-60
2022/02/03 03:44:34;;;;;;;25.85;7.88;;;10.00;97.80;;;;;;6183617;23;19996;-62
2022/02/03 03:47:04;;;;;;;17.77;7.72;;;10.00;97.80;;;;;;6207232;23;20103;-58
2022/02/03 03:49:37;;;;;;;19.27;7.97;;;10.00;97.80;;;;;;6233954;23;20149;-58
2022/02/03 03:52:11;;;;;;;14.25;7.45;;;10.00;97.80;;;;;;6235387;23;20000;-60
2022/02/03 03:54:46;;;;;;;21.65;7.82;;;9.90;97.70;;;;;;6186286;23;20001;-62
2022/02/03 03:57:33;;;;;;;23.50;7.85;;;9.90;97.70;;;;;;6187519;23;20015;-60
2022/02/03 04:37:57;;;;;;;17.73;7.82;;;10.00;97.70;;;;;;6181293;23;20031;-61
2022/02/03 04:52:37;;;;;;;17.27;7.40;;;9.90;97.60;;;;;;6210342;23;20081;-61
2022/02/03 05:10:06;;;;;;;16.85;8.55;;;10.10;97.60;;;;;;6206246;23;20008;-62
2022/02/03 05:13:02;;;;;;;11.60;7.45;;;9.90;97.60;;;;;;6194432;23;20012;-59
2022/02/03 05:15:50;;;;;;;15.93;8.00;;;9.90;97.60;;;;;;6213478;23;20000;-60
2022/02/03 05:18:59;;;;;;;16.42;7.85;;;9.90;97.60;;;;;;6212519;23;20010;-59
2022/02/03 05:22:33;;;;;;;42.85;9.55;;;9.90;97.60;;;;;;6215504;23;20015;-59
2022/02/03 05:35:09;;;;;;;28.25;7.93;;;9.80;97.60;;;;;;6215757;23;20018;-60
2022/02/03 05:46:19;;;;;;;50.78;9.55;;;9.80;97.80;;;;;;6212461;23;20012;-60
2022/02/03 05:49:03;;;;;;;89.93;17.02;;;9.80;97.80;;;;;;6191875;23;20004;-61
2022/02/03 06:05:46;;;;;;;152.00;17.02;;;9.70;97.90;;;;;;6235836;23;20011;-63
2022/02/03 06:08:16;;;;;;;103.13;16.27;;;9.70;98.00;;;;;;6231506;23;20951;-62
2022/02/03 06:13:41;;;;;;;128.13;17.45;;;9.70;98.00;;;;;;6210370;23;20069;-60
2022/02/03 06:21:49;;;;;;;97.45;15.88;;;9.60;98.00;;;;;;6211340;23;20089;-62
2022/02/03 06:24:19;;;;;;;85.88;15.68;;;9.60;98.00;;;;;;6234908;23;19996;-59
2022/02/03 06:29:33;;;;;;;97.90;14.35;;;9.60;98.00;;;;;;6211750;23;20015;-60
2022/02/03 06:31:59;;;;;;;92.00;15.15;;;9.60;98.00;;;;;;6236380;23;20475;-60
2022/02/03 06:34:24;;;;;;;81.38;14.60;;;9.60;97.90;;;;;;6235174;23;20091;-63
2022/02/03 06:36:51;;;;;;;87.32;14.48;;;9.60;97.90;;;;;;6232828;23;20107;-61
2022/02/03 06:39:21;;;;;;;83.93;14.38;;;9.60;97.90;;;;;;6206407;23;20016;-59
2022/02/03 06:41:50;;;;;;;88.00;14.07;;;9.40;97.80;;;;;;6208160;23;20440;-60
2022/02/03 06:44:17;;;;;;;72.90;13.77;;;9.60;97.80;;;;;;6210910;23;19999;-62
2022/02/03 06:46:47;;;;;;;51.67;13.30;;;9.50;97.70;;;;;;6236626;23;20370;-61
2022/02/03 06:49:22;;;;;;;61.63;12.45;;;9.50;97.70;;;;;;6208794;23;20004;-59
2022/02/03 06:51:58;;;;;;;70.40;13.50;;;9.50;97.70;;;;;;6235486;23;20083;-59
2022/02/03 06:54:37;;;;;;;64.65;11.65;;;9.50;97.70;;;;;;6190153;23;20016;-61
2022/02/03 06:57:08;;;;;;;77.57;13.65;;;9.50;97.70;;;;;;6238362;23;20322;-60
2022/02/03 06:59:43;;;;;;;78.28;13.13;;;9.50;97.70;;;;;;6212303;23;20000;-62
2022/02/03 07:02:09;;;;;;;53.03;12.93;;;9.60;97.70;;;;;;6236993;23;20066;-62
2022/02/03 07:04:43;;;;;;;68.10;12.07;;;9.50;97.70;;;;;;6236128;23;20095;-60
2022/02/03 07:07:09;;;;;;;68.95;12.25;;;9.50;97.60;;;;;;6236942;23;20005;-61
2022/02/03 07:09:35;;;;;;;64.68;12.10;;;9.50;97.70;;;;;;6210356;23;20774;-60
2022/02/03 07:12:03;;;;;;;65.55;12.75;;;9.50;97.70;;;;;;6237215;23;19997;-57
2022/02/03 07:14:31;;;;;;;54.17;10.52;;;9.50;97.70;;;;;;6235706;23;20092;-62
2022/02/03 07:16:59;;;;;;;81.03;12.27;;;9.50;97.60;;;;;;6232876;23;20079;-62
2022/02/03 07:19:24;;;;;;;70.75;11.85;;;9.50;97.60;;;;;;6180811;23;20074;-63
2022/02/03 07:21:50;;;;;;;66.35;12.02;;;9.40;97.60;;;;;;6232705;23;20008;-61
2022/02/03 07:24:15;;;;;;;53.80;11.32;;;9.40;97.50;;;;;;6232140;23;20008;-62
2022/02/03 07:26:41;;;;;;;52.03;11.15;;;9.50;97.50;;;;;;6234016;23;20342;-61
2022/02/03 07:29:07;;;;;;;70.15;12.00;;;9.40;97.60;;;;;;6231764;23;20428;-63
2022/02/03 07:31:32;;;;;;;53.35;12.68;;;9.40;97.50;;;;;;6181354;23;20005;-59
2022/02/03 07:34:03;;;;;;;50.85;10.52;;;9.40;97.50;;;;;;6234720;23;20354;-62
2022/02/03 07:36:29;;;;;;;53.60;11.15;;;9.40;97.50;;;;;;6209379;23;20007;-60
2022/02/03 07:38:57;;;;;;;45.53;10.93;;;9.40;97.50;;;;;;6207129;23;20494;-60
2022/02/03 07:41:22;;;;;;;51.22;11.27;;;9.40;97.50;;;;;;6230789;23;20000;-59
2022/02/03 07:43:48;;;;;;;35.17;10.95;;;9.40;97.50;;;;;;6206046;23;20073;-63
2022/02/03 07:46:13;;;;;;;54.47;12.10;;;9.40;97.50;;;;;;6234253;23;20070;-63
2022/02/03 07:48:39;;;;;;;43.20;9.70;;;9.40;97.60;;;;;;6208509;23;20012;-60
2022/02/03 07:51:05;;;;;;;38.38;10.13;;;9.40;97.70;;;;;;6208607;23;20011;-60
2022/02/03 07:53:30;;;;;;;59.33;11.73;;;9.40;97.60;;;;;;6232652;23;20066;-59
2022/02/03 07:55:56;;;;;;;41.75;9.57;;;9.40;97.50;;;;;;6232359;23;20059;-63
2022/02/03 07:58:21;;;;;;;54.22;10.93;;;9.40;97.40;;;;;;6233704;23;20083;-62
2022/02/03 08:00:47;;;;;;;56.92;11.25;;;9.40;97.40;;;;;;6209214;23;20042;-62
2022/02/03 08:03:14;;;;;;;46.83;10.23;;;9.40;97.40;;;;;;6235841;23;20272;-60
2022/02/03 08:05:46;;;;;;;38.20;10.00;;;9.40;97.40;;;;;;6209453;23;20000;-62
2022/02/03 08:08:19;;;;;;;43.22;10.88;;;9.40;97.40;;;;;;6209444;23;20011;-60
2022/02/03 08:13:15;;;;;;;59.53;12.13;;;9.40;97.40;;;;;;6236261;23;20094;-63
2022/02/03 08:15:42;;;;;;;71.93;12.13;;;9.40;97.40;;;;;;6235868;23;20011;-60
2022/02/03 08:18:13;;;;;;;53.53;11.05;;;9.40;97.50;;;;;;6236358;23;20318;-61
2022/02/03 08:20:47;;;;;;;55.28;11.80;;;9.40;97.50;;;;;;6209611;23;20030;-59
2022/02/03 08:26:02;;;;;;;47.72;11.52;;;9.40;97.40;;;;;;6233818;23;20008;-58
2022/02/03 08:29:29;;;;;;;67.13;12.45;;;9.50;97.40;;;;;;6208841;23;20042;-59
2022/02/03 08:32:03;;;;;;;88.93;14.13;;;9.40;97.80;;;;;;6215317;23;20018;-63
2022/02/03 08:34:06;;;;;;;94.30;15.15;;;9.40;97.40;;;;;;6184559;23;20065;-61
2022/02/03 08:36:35;;;;;;;79.93;14.35;;;9.50;97.50;;;;;;6208357;23;20012;-62
2022/02/03 08:39:06;;;;;;;61.97;12.68;;;9.50;97.50;;;;;;6231979;23;20010;-59
2022/02/03 08:41:31;;;;;;;64.68;12.93;;;9.50;97.50;;;;;;6186170;23;19996;-60
2022/02/03 08:43:57;;;;;;;55.88;13.13;;;9.40;97.50;;;;;;6183393;23;20058;-60
2022/02/03 08:46:25;;;;;;;53.65;12.63;;;9.40;97.50;;;;;;6208327;23;20000;-62
2022/02/03 08:48:51;;;;;;;47.10;12.65;;;9.50;97.50;;;;;;6208291;23;20287;-60
2022/02/03 08:51:16;;;;;;;61.53;13.50;;;9.50;97.50;;;;;;6209655;23;20099;-62
2022/02/03 08:53:52;;;;;;;56.88;13.80;;;9.40;97.50;;;;;;6183559;23;20334;-58
2022/02/03 09:50:21;;;;;;;41.60;11.00;;;9.70;97.00;;;;;;6189061;23;20433;-65
2022/02/03 09:58:42;;;;;;;66.43;13.15;;;9.80;97.20;;;;;;6188630;23;20070;-60
2022/02/03 10:01:11;;;;;;;68.22;12.30;;;9.80;97.20;;;;;;6183078;23;20097;-61
2022/02/03 10:06:11;;;;;;;65.72;14.30;;;9.90;97.20;;;;;;6233826;23;20004;-60
2022/02/03 10:08:37;;;;;;;69.05;13.95;;;9.90;97.30;;;;;;6159027;23;20114;-60
2022/02/03 10:11:21;;;;;;;61.05;13.75;;;9.90;97.30;;;;;;6232305;23;20036;-58
2022/02/03 10:13:55;;;;;;;56.85;13.18;;;9.90;97.40;;;;;;6232870;23;20004;-61
2022/02/03 10:16:24;;;;;;;77.35;15.30;;;9.90;97.40;;;;;;6232321;23;20446;-62
2022/02/03 10:19:06;;;;;;;49.70;13.32;;;9.90;97.40;;;;;;6182855;23;20002;-61
2022/02/03 10:21:31;;;;;;;52.90;11.88;;;10.00;97.40;;;;;;6181569;23;20004;-60
2022/02/03 10:24:00;;;;;;;49.63;12.25;;;10.00;97.40;;;;;;6203165;23;20316;-61
2022/02/03 10:26:40;;;;;;;51.47;12.25;;;10.10;97.20;;;;;;6157134;23;20067;-58
2022/02/03 10:29:07;;;;;;;51.88;13.20;;;10.00;97.20;;;;;;6206638;23;20302;-63
2022/02/03 10:31:35;;;;;;;50.83;11.07;;;10.10;97.30;;;;;;6233890;23;20008;-61
2022/02/03 10:34:02;;;;;;;43.30;11.63;;;10.10;97.30;;;;;;6205723;23;20086;-62
2022/02/03 10:37:06;;;;;;;48.10;11.02;;;10.10;97.20;;;;;;6233313;23;20322;-61
2022/02/03 10:48:34;;;;;;;47.20;10.60;;;10.20;97.50;;;;;;6209541;23;20019;-61
2022/02/03 10:52:05;;;;;;;43.75;11.85;;;10.30;97.60;;;;;;6233632;23;20749;-60
2022/02/03 11:02:13;;;;;;;38.88;10.73;;;10.40;97.30;;;;;;6210584;23;20019;-64
2022/02/03 11:05:51;;;;;;;47.28;10.82;;;10.40;97.20;;;;;;6208594;23;20083;-62
2022/02/03 11:08:09;;;;;;;45.60;10.00;;;10.40;97.20;;;;;;6178002;23;20004;-58
2022/02/03 11:12:54;;;;;;;42.88;9.30;;;10.50;97.00;;;;;;6209048;23;20083;-61
2022/02/03 11:15:21;;;;;;;39.03;9.65;;;10.50;97.00;;;;;;6180853;23;20609;-59
2022/02/03 11:17:48;;;;;;;53.97;10.60;;;10.50;97.00;;;;;;6182989;23;20008;-58
2022/02/03 11:20:13;;;;;;;48.10;10.32;;;10.50;96.90;;;;;;6182831;23;20059;-59
2022/02/03 11:25:33;;;;;;;202.05;22.13;;;10.60;96.80;;;;;;6232225;23;20003;-59
2022/02/03 11:33:48;;;;;;;123.45;16.05;;;10.70;96.80;;;;;;6210494;23;20015;-60
2022/02/03 11:56:39;;;;;;;84.50;13.43;;;10.80;96.50;;;;;;6168251;23;20008;-63
2022/02/03 12:17:50;;;;;;;76.72;12.30;;;11.10;96.40;;;;;;6179828;23;20086;-62
2022/02/03 12:20:39;;;;;;;51.85;8.93;;;11.10;96.40;;;;;;6231363;23;20015;-60
2022/02/03 12:23:22;;;;;;;54.55;9.43;;;11.10;96.10;;;;;;6205735;23;20001;-60
2022/02/03 12:25:56;;;;;;;57.78;10.05;;;11.20;96.10;;;;;;6186312;23;20004;-59
2022/02/03 12:28:30;;;;;;;65.30;10.05;;;11.20;96.00;;;;;;6157477;23;20095;-65
2022/02/03 12:31:13;;;;;;;66.50;10.40;;;11.20;96.00;;;;;;6183502;23;20008;-61
2022/02/03 12:38:54;;;;;;;97.50;14.70;;;11.20;96.10;;;;;;6209194;23;20007;-60
2022/02/03 12:41:32;;;;;;;95.32;12.85;;;11.30;96.20;;;;;;6203213;23;20000;-61
2022/02/03 12:44:03;;;;;;;107.80;15.75;;;11.30;96.10;;;;;;6207286;23;20000;-60
2022/02/03 12:46:29;;;;;;;94.07;13.38;;;11.30;96.00;;;;;;6231383;23;20004;-60
2022/02/03 12:48:55;;;;;;;86.72;12.68;;;11.30;95.80;;;;;;6205894;23;20050;-62
2022/02/03 12:51:22;;;;;;;68.03;11.45;;;11.40;95.70;;;;;;6205803;23;20000;-61
2022/02/03 12:53:48;;;;;;;81.20;10.65;;;11.40;95.70;;;;;;6206768;23;20008;-59
2022/02/03 12:56:13;;;;;;;73.75;11.23;;;11.40;95.60;;;;;;6232154;23;20454;-60
2022/02/03 12:58:45;;;;;;;76.88;11.80;;;11.40;95.50;;;;;;6205368;23;20458;-61
2022/02/03 13:01:14;;;;;;;62.13;10.63;;;11.50;95.40;;;;;;6206036;23;19996;-62
2022/02/03 13:03:45;;;;;;;57.45;11.32;;;11.50;95.50;;;;;;6184305;23;20019;-59
2022/02/03 13:06:17;;;;;;;53.25;10.52;;;11.50;95.40;;;;;;6184235;23;20003;-61
2022/02/03 13:08:51;;;;;;;68.05;10.55;;;11.50;95.70;;;;;;6203322;23;20040;-61
2022/02/03 13:11:23;;;;;;;68.60;10.63;;;11.50;95.20;;;;;;6204257;23;20012;-61
2022/02/03 13:14:03;;;;;;;58.88;9.75;;;11.50;95.30;;;;;;6179990;23;20012;-62
2022/02/03 13:16:29;;;;;;;49.00;9.50;;;11.60;95.30;;;;;;6203718;23;20349;-60
2022/02/03 13:19:23;;;;;;;49.58;9.88;;;11.60;95.40;;;;;;6205912;23;20008;-61
2022/02/03 13:22:13;;;;;;;70.50;9.70;;;11.60;95.40;;;;;;6208586;23;20004;-60
2022/02/03 13:27:34;;;;;;;58.22;8.63;;;11.70;95.50;;;;;;6211891;23;20085;-62
2022/02/03 13:30:05;;;;;;;43.75;7.50;;;11.70;95.30;;;;;;6208434;23;20011;-59
2022/02/03 13:32:42;;;;;;;55.88;9.55;;;11.70;95.20;;;;;;6208381;23;20061;-62
2022/02/03 13:35:24;;;;;;;62.72;9.05;;;11.70;95.10;;;;;;6233577;23;20043;-58
2022/02/03 13:37:51;;;;;;;91.07;11.38;;;11.80;95.10;;;;;;6212739;23;20000;-60
2022/02/03 13:40:18;;;;;;;61.28;9.02;;;11.80;95.10;;;;;;6208939;23;20342;-61
2022/02/03 13:42:49;;;;;;;76.35;9.90;;;11.80;95.10;;;;;;6183228;23;20105;-60
2022/02/03 13:45:15;;;;;;;131.65;15.75;;;11.90;95.30;;;;;;6184050;23;20029;-60
2022/02/03 13:47:41;;;;;;;67.63;10.48;;;11.90;95.30;;;;;;6207324;23;20008;-60
2022/02/03 13:50:28;;;;;;;73.88;11.35;;;12.00;95.30;;;;;;6206585;23;20426;-61
2022/02/03 13:52:56;;;;;;;78.43;10.48;;;12.00;95.30;;;;;;6233151;23;20011;-63
2022/02/03 14:14:39;;;;;;;91.40;12.00;;;12.10;95.00;;;;;;6233983;23;20015;-60
2022/02/03 14:22:54;;;;;;;102.72;13.68;;;12.10;94.70;;;;;;6234918;23;20004;-61
2022/02/03 14:27:56;;;;;;;112.03;13.38;;;12.10;94.70;;;;;;6233684;23;20118;-62
2022/02/03 14:30:23;;;;;;;125.45;15.07;;;12.20;94.70;;;;;;6234472;23;20477;-58
2022/02/03 14:32:55;;;;;;;365.80;38.85;;;12.20;94.70;;;;;;6206107;23;20338;-58
2022/02/03 14:35:21;;;;;;;316.23;34.03;;;12.20;94.70;;;;;;6234347;23;20008;-60
2022/02/03 14:37:59;;;;;;;149.43;18.67;;;12.20;94.80;;;;;;6232938;23;20019;-60
2022/02/03 14:40:35;;;;;;;146.13;15.95;;;12.20;94.70;;;;;;6232533;23;20381;-59
2022/02/03 14:43:03;;;;;;;96.38;13.32;;;12.20;94.70;;;;;;6233278;23;20229;-60
2022/02/03 14:45:28;;;;;;;99.80;12.00;;;12.20;94.70;;;;;;6231978;23;20008;-61
2022/02/03 14:47:54;;;;;;;99.63;12.77;;;12.20;94.80;;;;;;6181344;23;20046;-61
2022/02/03 14:50:20;;;;;;;112.28;16.55;;;12.20;94.80;;;;;;6233106;23;20046;-61
2022/02/03 14:52:57;;;;;;;123.07;18.40;;;12.20;94.80;;;;;;6209682;23;20091;-62
2022/02/03 14:58:17;;;;;;;124.80;16.67;;;12.20;95.10;;;;;;6212821;23;20074;-62
2022/02/03 15:00:46;;;;;;;198.10;25.83;;;12.20;95.10;;;;;;6234726;23;20034;-62
2022/02/03 15:03:12;;;;;;;100.25;13.88;;;12.30;95.00;;;;;;6205890;23;20453;-63
2022/02/03 15:05:39;;;;;;;81.30;13.73;;;12.30;94.80;;;;;;6205943;23;20062;-61
2022/02/03 15:08:14;;;;;;;104.18;12.32;;;12.20;94.50;;;;;;6178979;23;20035;-61
2022/02/03 15:10:51;;;;;;;90.93;13.65;;;12.30;94.50;;;;;;6184132;23;20004;-61
2022/02/03 15:13:34;;;;;;;105.85;14.90;;;12.20;94.40;;;;;;6187277;23;20038;-63
2022/02/03 15:16:00;;;;;;;94.97;13.75;;;12.20;94.40;;;;;;6209008;23;20012;-60
2022/02/03 15:18:27;;;;;;;96.18;14.73;;;12.30;94.70;;;;;;6201321;23;20010;-60
2022/02/03 15:20:52;;;;;;;98.95;14.75;;;12.30;94.80;;;;;;6195637;23;20004;-60
2022/02/03 15:23:24;;;;;;;107.93;15.85;;;12.30;94.80;;;;;;6169802;23;20015;-60
2022/02/03 15:25:50;;;;;;;113.93;17.10;;;12.30;94.80;;;;;;6177681;23;20087;-60
2022/02/03 15:28:17;;;;;;;112.88;15.85;;;12.30;94.80;;;;;;6202008;23;20031;-59
2022/02/03 15:30:42;;;;;;;106.95;15.60;;;12.30;94.80;;;;;;6231681;23;20011;-62
2022/02/03 15:33:08;;;;;;;101.95;13.80;;;12.30;94.70;;;;;;6176854;23;19996;-61
2022/02/03 15:35:38;;;;;;;115.78;15.68;;;12.30;94.70;;;;;;6230253;23;20023;-62
2022/02/03 15:38:06;;;;;;;134.43;16.52;;;12.30;94.80;;;;;;6229587;23;20007;-60
2022/02/03 15:40:34;;;;;;;133.65;15.90;;;12.30;94.80;;;;;;6203884;23;20008;-61
2022/02/03 15:45:34;;;;;;;110.07;14.88;;;12.30;95.10;;;;;;6204941;23;20026;-58
2022/02/03 15:48:04;;;;;;;123.50;15.80;;;12.30;94.80;;;;;;6203608;23;20083;-60
2022/02/03 16:17:17;;;;;;;119.75;17.50;;;12.40;94.90;;;;;;6207140;23;20008;-60
2022/02/03 16:24:51;;;;;;;131.32;17.60;;;12.30;94.80;;;;;;6225907;23;20011;-60
2022/02/03 16:51:50;;;;;;;145.65;18.90;;;12.20;94.80;;;;;;6167686;23;20019;-61
2022/02/03 16:54:18;;;;;;;160.52;21.20;;;12.20;94.70;;;;;;6204107;23;20075;-62
2022/02/03 16:56:45;;;;;;;150.98;21.23;;;12.20;94.90;;;;;;6228966;23;20322;-60
2022/02/03 16:59:10;;;;;;;167.68;22.30;;;12.20;94.90;;;;;;6202855;23;20004;-60
2022/02/03 17:01:36;;;;;;;189.18;24.27;;;12.20;95.10;;;;;;6201342;23;20785;-62
2022/02/03 17:04:01;;;;;;;197.50;24.65;;;12.20;95.20;;;;;;6228091;23;20000;-59
2022/02/03 17:06:27;;;;;;;207.70;26.40;;;12.20;95.20;;;;;;6202415;23;20083;-60
2022/02/03 17:08:52;;;;;;;200.85;25.00;;;12.30;95.40;;;;;;6229910;23;20020;-60
2022/02/03 17:11:18;;;;;;;205.60;24.70;;;12.20;95.30;;;;;;6227742;23;20107;-62
2022/02/03 17:13:44;;;;;;;191.63;23.35;;;12.20;95.30;;;;;;6229507;23;20016;-59
2022/02/03 17:16:12;;;;;;;186.25;25.23;;;12.20;95.30;;;;;;6202599;23;20007;-61
2022/02/03 17:18:37;;;;;;;216.18;26.80;;;12.20;95.20;;;;;;6196603;23;20004;-62
2022/02/03 17:21:03;;;;;;;219.38;26.42;;;12.30;95.20;;;;;;6202895;23;20015;-61
2022/02/03 17:23:29;;;;;;;215.90;29.75;;;12.30;95.20;;;;;;6176322;23;20048;-60
2022/02/03 17:26:13;;;;;;;214.55;25.92;;;12.30;95.40;;;;;;6228145;23;20015;-62
2022/02/03 17:28:52;;;;;;;213.65;26.20;;;12.30;95.20;;;;;;6225863;23;20054;-62
2022/02/03 18:04:22;;;;;;;279.20;32.67;;;12.40;95.60;;;;;;6206751;23;20034;-61
2022/02/03 18:09:57;;;;;;;315.27;40.00;;;12.40;96.00;;;;;;6158188;23;20019;-59
2022/02/03 18:49:28;;;;;;;290.38;38.10;;;12.40;95.70;;;;;;6234369;23;20433;-61
2022/02/03 18:51:11;;;;;;;308.73;38.58;;;12.30;95.70;;;;;;6212360;23;20441;-62
2022/02/03 18:53:43;;;;;;;280.48;35.25;;;12.30;95.80;;;;;;6206338;23;20088;-63
2022/02/03 18:56:27;;;;;;;253.38;36.40;;;12.30;95.80;;;;;;6200992;23;20078;-61
2022/02/03 18:59:25;;;;;;;247.25;33.10;;;12.30;95.70;;;;;;6205792;23;20031;-59
2022/02/03 19:02:16;;;;;;;344.77;41.20;;;12.30;95.80;;;;;;6184027;23;20579;-59
2022/02/03 19:13:35;;;;;;;249.90;38.28;;;12.20;95.70;;;;;;6229650;23;20004;-62
2022/02/03 19:15:49;;;;;;;257.52;36.63;;;12.20;95.90;;;;;;6212049;23;20004;-61
2022/02/03 19:24:08;;;;;;;231.93;35.47;;;12.30;95.80;;;;;;6201615;23;20000;-60
2022/02/03 19:56:14;;;;;;;243.45;37.30;;;12.10;95.70;;;;;;6207536;23;20008;-61
2022/02/03 20:08:11;;;;;;;248.82;39.65;;;12.00;96.10;;;;;;6205227;23;20008;-60
2022/02/03 20:12:31;;;;;;;275.38;40.40;;;11.90;96.20;;;;;;6176649;23;20004;-60
2022/02/03 20:14:57;;;;;;;324.17;41.33;;;11.90;96.20;;;;;;6204352;23;20020;-61
2022/02/03 20:17:27;;;;;;;332.67;42.28;;;11.90;96.20;;;;;;6231702;23;20433;-59
2022/02/03 20:19:53;;;;;;;304.10;41.40;;;11.90;96.20;;;;;;6232536;23;20003;-62
2022/02/03 20:22:19;;;;;;;320.20;45.55;;;11.90;96.20;;;;;;6232015;23;20000;-59
2022/02/03 20:24:46;;;;;;;273.58;37.78;;;11.90;96.10;;;;;;6231041;23;20172;-60
2022/02/03 20:27:11;;;;;;;252.95;37.03;;;11.90;96.40;;;;;;6178811;23;20023;-60
2022/02/03 20:29:37;;;;;;;246.52;37.25;;;11.90;96.20;;;;;;6203238;23;19997;-62
2022/02/03 20:32:03;;;;;;;228.52;34.90;;;11.90;96.20;;;;;;6232017;23;20004;-59
2022/02/03 20:34:28;;;;;;;246.20;36.67;;;11.80;96.00;;;;;;6230514;23;20015;-63
2022/02/03 20:36:54;;;;;;;233.68;33.05;;;11.80;96.00;;;;;;6176687;23;20048;-61
2022/02/03 20:39:19;;;;;;;249.60;36.58;;;11.80;95.90;;;;;;6177530;23;20338;-65
2022/02/03 20:41:45;;;;;;;198.85;31.58;;;11.80;95.60;;;;;;6230487;23;20788;-63
2022/02/03 20:44:11;;;;;;;197.63;31.92;;;11.80;95.50;;;;;;6232476;23;20007;-63
2022/02/03 20:46:37;;;;;;;207.65;32.95;;;11.80;95.50;;;;;;6204767;23;20008;-61
2022/02/03 20:49:03;;;;;;;242.50;36.33;;;11.70;95.50;;;;;;6231563;23;20474;-60
2022/02/03 20:51:29;;;;;;;244.35;36.33;;;11.70;95.80;;;;;;6233063;23;20008;-60
2022/02/03 20:53:55;;;;;;;206.15;34.55;;;11.70;95.80;;;;;;6183633;23;20095;-60
2022/02/03 20:56:21;;;;;;;219.48;31.90;;;11.70;96.00;;;;;;6234118;23;20383;-62
2022/02/03 20:58:47;;;;;;;235.38;33.88;;;11.70;96.10;;;;;;6207679;23;20004;-61
2022/02/03 21:01:23;;;;;;;266.35;35.67;;;11.70;96.10;;;;;;6207503;23;20107;-60
2022/02/03 21:03:50;;;;;;;238.55;32.92;;;11.70;95.90;;;;;;6233308;23;20507;-61
2022/02/03 21:06:16;;;;;;;163.32;31.10;;;11.60;96.00;;;;;;6206228;23;20012;-60
2022/02/03 21:08:45;;;;;;;196.73;31.92;;;11.60;96.00;;;;;;6207063;23;20008;-61
2022/02/03 21:11:11;;;;;;;202.32;30.83;;;11.60;96.00;;;;;;6208366;23;20004;-60
2022/02/03 21:13:36;;;;;;;195.68;29.88;;;11.60;96.00;;;;;;6231609;23;20023;-60
2022/02/03 21:16:03;;;;;;;183.93;28.77;;;11.60;95.90;;;;;;6204460;23;20648;-62
2022/02/03 21:18:31;;;;;;;189.38;30.45;;;11.50;95.80;;;;;;6204089;23;20172;-63
2022/02/03 21:20:57;;;;;;;152.57;27.02;;;11.50;95.80;;;;;;6179462;23;20516;-59
2022/02/03 21:23:23;;;;;;;172.30;30.27;;;11.50;95.90;;;;;;6230347;23;20059;-63
2022/02/03 21:25:53;;;;;;;177.70;30.58;;;11.50;95.80;;;;;;6204263;23;20378;-63
2022/02/03 21:28:22;;;;;;;194.68;29.88;;;11.50;95.90;;;;;;6203085;23;20018;-61
2022/02/03 21:30:51;;;;;;;174.93;28.42;;;11.50;95.80;;;;;;6232059;23;20091;-63
2022/02/03 21:33:22;;;;;;;156.82;27.92;;;11.50;95.80;;;;;;6179331;23;20301;-59
2022/02/03 21:35:49;;;;;;;150.48;27.20;;;11.40;95.70;;;;;;6207216;23;20341;-61
2022/02/03 21:38:15;;;;;;;179.50;29.73;;;11.40;95.70;;;;;;6206903;23;20039;-60
2022/02/03 21:40:41;;;;;;;169.80;27.65;;;11.40;95.70;;;;;;6205498;23;20001;-59
2022/02/03 21:43:06;;;;;;;149.98;27.85;;;11.40;95.80;;;;;;6232466;23;20007;-64
2022/02/03 21:45:32;;;;;;;126.90;26.15;;;11.40;95.70;;;;;;6204688;23;20015;-61
2022/02/03 21:47:58;;;;;;;150.20;28.42;;;11.30;95.60;;;;;;6206981;23;20008;-63
2022/02/03 21:50:29;;;;;;;122.45;26.23;;;11.30;95.70;;;;;;6207581;23;20158;-61
2022/02/03 21:52:55;;;;;;;149.80;26.20;;;11.30;95.70;;;;;;6208330;23;20000;-63
2022/02/03 21:55:20;;;;;;;152.90;26.30;;;11.30;95.70;;;;;;6234575;23;20011;-62
2022/02/03 21:57:49;;;;;;;126.18;26.45;;;11.30;95.70;;;;;;6207829;23;20095;-62
2022/02/03 22:00:16;;;;;;;158.50;26.85;;;11.30;95.80;;;;;;6209059;23;20004;-62
2022/02/03 22:02:42;;;;;;;134.52;27.90;;;11.20;95.80;;;;;;6209069;23;20062;-62
2022/02/03 22:05:08;;;;;;;117.68;24.15;;;11.20;95.80;;;;;;6235383;23;20012;-62
2022/02/03 22:07:34;;;;;;;102.13;23.52;;;11.20;95.90;;;;;;6234075;23;20004;-62
2022/02/03 22:09:59;;;;;;;110.82;24.77;;;11.20;95.90;;;;;;6234480;23;20449;-63
2022/02/03 22:12:25;;;;;;;108.68;23.60;;;11.10;95.80;;;;;;6183065;23;20031;-59
2022/02/03 22:14:50;;;;;;;124.97;24.13;;;11.10;95.90;;;;;;6237503;23;20054;-62
2022/02/03 22:17:16;;;;;;;154.50;26.98;;;11.10;95.90;;;;;;6209022;23;20350;-62
2022/02/03 22:19:48;;;;;;;120.75;24.20;;;11.10;95.90;;;;;;6207148;23;20336;-62
2022/02/03 22:25:16;;;;;;;120.18;24.58;;;11.10;95.90;;;;;;6174449;23;20011;-60
2022/02/03 22:28:04;;;;;;;115.93;23.23;;;11.00;95.80;;;;;;6193018;23;20484;-62
2022/02/03 22:39:01;;;;;;;105.90;21.95;;;10.90;95.90;;;;;;6149975;23;20461;-61
2022/02/03 22:42:25;;;;;;;109.50;21.63;;;10.90;95.90;;;;;;6187057;23;20621;-59
2022/02/03 22:47:19;;;;;;;111.38;23.42;;;10.90;95.90;;;;;;6207637;23;20026;-62
2022/02/03 22:49:42;;;;;;;95.25;22.55;;;10.90;95.90;;;;;;6213322;23;20007;-62
2022/02/03 22:52:07;;;;;;;102.70;21.42;;;10.80;95.90;;;;;;6205876;23;20004;-60
2022/02/03 22:54:33;;;;;;;102.78;23.40;;;10.80;95.80;;;;;;6235898;23;20124;-61
2022/02/03 22:56:59;;;;;;;92.15;23.13;;;10.80;95.80;;;;;;6158246;23;20031;-60
2022/02/03 23:02:05;;;;;;;98.78;24.30;;;10.80;95.80;;;;;;6233840;23;20027;-60
2022/02/03 23:04:31;;;;;;;95.25;23.27;;;10.80;95.70;;;;;;6209466;23;20010;-62